Aviation Digital Data Service (ADDS)

Output produced by METARs form (1415 UTC 23 March 2017)
found at http://www.aviationweather.gov/adds/metars/
 
KPHL 231411Z 2314/2418 35008KT P6SM SKC 
     FM231900 26007KT P6SM SKC 
     FM240000 19004KT P6SM FEW250 
     FM241400 20009KT P6SM SCT080 BKN130 
     PROB30 2415/2418 4SM -RA BKN080